sensor_id;sensor_type;location;lat;lon;timestamp;temperature;humidity
10057;DHT22;5068;51.286;7.518;2024-01-25T00:01:16;8.20;60.70
10057;DHT22;5068;51.286;7.518;2024-01-25T00:02:51;8.20;60.60
10057;DHT22;5068;51.286;7.518;2024-01-25T00:04:23;8.20;60.60
10057;DHT22;5068;51.286;7.518;2024-01-25T00:05:57;8.20;60.70
10057;DHT22;5068;51.286;7.518;2024-01-25T00:07:30;8.20;60.70
10057;DHT22;5068;51.286;7.518;2024-01-25T00:09:03;8.20;60.60
10057;DHT22;5068;51.286;7.518;2024-01-25T00:10:39;8.10;60.60
10057;DHT22;5068;51.286;7.518;2024-01-25T00:12:12;8.20;60.70
10057;DHT22;5068;51.286;7.518;2024-01-25T00:13:44;8.10;60.60
10057;DHT22;5068;51.286;7.518;2024-01-25T00:15:17;8.20;60.70
10057;DHT22;5068;51.286;7.518;2024-01-25T00:16:50;8.20;60.70
10057;DHT22;5068;51.286;7.518;2024-01-25T00:18:24;8.20;60.70
10057;DHT22;5068;51.286;7.518;2024-01-25T00:19:57;8.20;60.70
10057;DHT22;5068;51.286;7.518;2024-01-25T00:21:30;8.20;60.70
10057;DHT22;5068;51.286;7.518;2024-01-25T00:23:03;8.10;60.60
10057;DHT22;5068;51.286;7.518;2024-01-25T00:24:36;8.20;60.70
10057;DHT22;5068;51.286;7.518;2024-01-25T00:26:10;8.20;60.70
10057;DHT22;5068;51.286;7.518;2024-01-25T00:27:43;8.20;60.70
10057;DHT22;5068;51.286;7.518;2024-01-25T00:29:16;8.20;60.60
10057;DHT22;5068;51.286;7.518;2024-01-25T00:30:50;8.20;60.70
10057;DHT22;5068;51.286;7.518;2024-01-25T00:32:22;8.20;60.70
10057;DHT22;5068;51.286;7.518;2024-01-25T00:33:57;8.20;60.70
10057;DHT22;5068;51.286;7.518;2024-01-25T00:35:31;8.10;60.60
10057;DHT22;5068;51.286;7.518;2024-01-25T00:37:06;8.20;60.70
10057;DHT22;5068;51.286;7.518;2024-01-25T00:38:40;8.20;60.80
10057;DHT22;5068;51.286;7.518;2024-01-25T00:40:14;8.20;60.80
10057;DHT22;5068;51.286;7.518;2024-01-25T00:41:51;8.20;60.70
10057;DHT22;5068;51.286;7.518;2024-01-25T00:43:26;8.20;60.80
10057;DHT22;5068;51.286;7.518;2024-01-25T00:45:00;8.20;60.60
10057;DHT22;5068;51.286;7.518;2024-01-25T00:46:33;8.20;60.50
10057;DHT22;5068;51.286;7.518;2024-01-25T00:48:08;8.20;60.60
10057;DHT22;5068;51.286;7.518;2024-01-25T00:49:44;8.20;60.50
10057;DHT22;5068;51.286;7.518;2024-01-25T00:51:22;8.10;60.30
10057;DHT22;5068;51.286;7.518;2024-01-25T00:52:56;8.10;60.20
10057;DHT22;5068;51.286;7.518;2024-01-25T00:54:29;8.10;60.20
10057;DHT22;5068;51.286;7.518;2024-01-25T00:56:03;8.10;61.00
10057;DHT22;5068;51.286;7.518;2024-01-25T00:57:36;8.10;60.20
10057;DHT22;5068;51.286;7.518;2024-01-25T00:59:10;8.10;60.30
10057;DHT22;5068;51.286;7.518;2024-01-25T01:00:43;8.10;60.30
10057;DHT22;5068;51.286;7.518;2024-01-25T01:02:17;8.10;60.30
10057;DHT22;5068;51.286;7.518;2024-01-25T01:03:55;8.10;60.30
10057;DHT22;5068;51.286;7.518;2024-01-25T01:05:33;8.10;60.40
10057;DHT22;5068;51.286;7.518;2024-01-25T01:07:08;8.10;60.40
10057;DHT22;5068;51.286;7.518;2024-01-25T01:08:42;8.10;60.40
10057;DHT22;5068;51.286;7.518;2024-01-25T01:10:15;8.10;60.50
10057;DHT22;5068;51.286;7.518;2024-01-25T01:11:48;8.10;60.50
10057;DHT22;5068;51.286;7.518;2024-01-25T01:13:22;8.10;60.60
10057;DHT22;5068;51.286;7.518;2024-01-25T01:14:54;8.10;60.60
10057;DHT22;5068;51.286;7.518;2024-01-25T01:16:27;8.10;60.50
10057;DHT22;5068;51.286;7.518;2024-01-25T01:18:03;8.10;60.60
10057;DHT22;5068;51.286;7.518;2024-01-25T01:19:37;8.10;60.60
10057;DHT22;5068;51.286;7.518;2024-01-25T01:21:11;8.10;60.60
10057;DHT22;5068;51.286;7.518;2024-01-25T01:22:44;8.10;60.50
10057;DHT22;5068;51.286;7.518;2024-01-25T01:24:16;8.00;60.30
10057;DHT22;5068;51.286;7.518;2024-01-25T01:25:50;8.10;60.40
10057;DHT22;5068;51.286;7.518;2024-01-25T01:27:22;8.00;60.30
10057;DHT22;5068;51.286;7.518;2024-01-25T01:28:55;8.00;60.30
10057;DHT22;5068;51.286;7.518;2024-01-25T01:30:28;8.00;60.20
10057;DHT22;5068;51.286;7.518;2024-01-25T01:32:01;8.00;60.20
10057;DHT22;5068;51.286;7.518;2024-01-25T01:33:34;8.00;60.20
10057;DHT22;5068;51.286;7.518;2024-01-25T01:35:08;8.00;60.10
10057;DHT22;5068;51.286;7.518;2024-01-25T01:36:42;8.00;60.10
10057;DHT22;5068;51.286;7.518;2024-01-25T01:38:15;8.00;60.20
10057;DHT22;5068;51.286;7.518;2024-01-25T01:39:48;8.00;61.00
10057;DHT22;5068;51.286;7.518;2024-01-25T01:41:22;8.00;60.30
10057;DHT22;5068;51.286;7.518;2024-01-25T01:42:59;8.00;60.20
10057;DHT22;5068;51.286;7.518;2024-01-25T01:44:32;8.00;60.30
10057;DHT22;5068;51.286;7.518;2024-01-25T01:46:10;8.00;60.30
10057;DHT22;5068;51.286;7.518;2024-01-25T01:47:45;8.00;60.40
10057;DHT22;5068;51.286;7.518;2024-01-25T01:49:18;7.90;60.30
10057;DHT22;5068;51.286;7.518;2024-01-25T01:50:52;7.90;60.40
10057;DHT22;5068;51.286;7.518;2024-01-25T01:52:26;7.90;60.60
10057;DHT22;5068;51.286;7.518;2024-01-25T01:54:01;7.90;60.30
10057;DHT22;5068;51.286;7.518;2024-01-25T01:55:34;7.90;60.40
10057;DHT22;5068;51.286;7.518;2024-01-25T01:57:08;7.90;60.40
10057;DHT22;5068;51.286;7.518;2024-01-25T01:58:40;7.90;60.40
10057;DHT22;5068;51.286;7.518;2024-01-25T02:00:15;7.90;60.50
10057;DHT22;5068;51.286;7.518;2024-01-25T02:01:49;7.90;60.40
10057;DHT22;5068;51.286;7.518;2024-01-25T02:03:21;7.90;60.30
10057;DHT22;5068;51.286;7.518;2024-01-25T02:04:55;7.90;60.40
10057;DHT22;5068;51.286;7.518;2024-01-25T02:06:27;7.90;60.40
10057;DHT22;5068;51.286;7.518;2024-01-25T02:08:02;7.80;60.30
10057;DHT22;5068;51.286;7.518;2024-01-25T02:09:37;7.90;60.50
10057;DHT22;5068;51.286;7.518;2024-01-25T02:11:11;7.90;60.40
10057;DHT22;5068;51.286;7.518;2024-01-25T02:12:45;7.90;60.50
10057;DHT22;5068;51.286;7.518;2024-01-25T02:14:17;7.90;60.40
10057;DHT22;5068;51.286;7.518;2024-01-25T02:15:50;7.90;60.40
10057;DHT22;5068;51.286;7.518;2024-01-25T02:17:22;7.80;60.30
10057;DHT22;5068;51.286;7.518;2024-01-25T02:18:56;7.90;60.40
10057;DHT22;5068;51.286;7.518;2024-01-25T02:20:30;7.80;60.30
10057;DHT22;5068;51.286;7.518;2024-01-25T02:22:05;7.90;60.40
10057;DHT22;5068;51.286;7.518;2024-01-25T02:23:40;7.80;60.30
10057;DHT22;5068;51.286;7.518;2024-01-25T02:25:12;7.80;60.30
10057;DHT22;5068;51.286;7.518;2024-01-25T02:26:46;7.80;60.30
10057;DHT22;5068;51.286;7.518;2024-01-25T02:28:18;7.80;60.30
10057;DHT22;5068;51.286;7.518;2024-01-25T02:29:52;7.80;60.10
10057;DHT22;5068;51.286;7.518;2024-01-25T02:31:25;7.80;60.00
10057;DHT22;5068;51.286;7.518;2024-01-25T02:32:57;7.80;60.00
10057;DHT22;5068;51.286;7.518;2024-01-25T02:34:31;7.80;59.90
10057;DHT22;5068;51.286;7.518;2024-01-25T02:36:04;7.80;60.10
10057;DHT22;5068;51.286;7.518;2024-01-25T02:37:38;7.80;60.30
10057;DHT22;5068;51.286;7.518;2024-01-25T02:39:11;7.80;60.10
10057;DHT22;5068;51.286;7.518;2024-01-25T02:40:45;7.80;59.90
10057;DHT22;5068;51.286;7.518;2024-01-25T02:42:17;7.80;59.90
10057;DHT22;5068;51.286;7.518;2024-01-25T02:43:50;7.80;59.80
10057;DHT22;5068;51.286;7.518;2024-01-25T02:45:22;7.80;59.80
10057;DHT22;5068;51.286;7.518;2024-01-25T02:46:55;7.80;59.80
10057;DHT22;5068;51.286;7.518;2024-01-25T02:48:27;7.80;59.80
10057;DHT22;5068;51.286;7.518;2024-01-25T02:50:01;7.80;59.70
10057;DHT22;5068;51.286;7.518;2024-01-25T02:51:33;7.80;59.70
10057;DHT22;5068;51.286;7.518;2024-01-25T02:53:06;7.80;59.70
10057;DHT22;5068;51.286;7.518;2024-01-25T02:54:40;7.80;59.70
10057;DHT22;5068;51.286;7.518;2024-01-25T02:56:13;7.80;59.60
10057;DHT22;5068;51.286;7.518;2024-01-25T02:57:46;7.80;59.50
10057;DHT22;5068;51.286;7.518;2024-01-25T02:59:19;7.80;59.40
10057;DHT22;5068;51.286;7.518;2024-01-25T03:00:51;7.80;59.50
10057;DHT22;5068;51.286;7.518;2024-01-25T03:02:25;7.80;59.50
10057;DHT22;5068;51.286;7.518;2024-01-25T03:03:57;7.80;59.40
10057;DHT22;5068;51.286;7.518;2024-01-25T03:05:31;7.80;59.40
10057;DHT22;5068;51.286;7.518;2024-01-25T03:07:03;7.80;59.40
10057;DHT22;5068;51.286;7.518;2024-01-25T03:08:37;7.80;59.40
10057;DHT22;5068;51.286;7.518;2024-01-25T03:10:11;7.80;59.40
10057;DHT22;5068;51.286;7.518;2024-01-25T03:11:44;7.80;59.40
10057;DHT22;5068;51.286;7.518;2024-01-25T03:13:17;7.80;59.30
10057;DHT22;5068;51.286;7.518;2024-01-25T03:14:50;7.80;59.30
10057;DHT22;5068;51.286;7.518;2024-01-25T03:16:23;7.80;59.40
10057;DHT22;5068;51.286;7.518;2024-01-25T03:17:56;7.80;59.50
10057;DHT22;5068;51.286;7.518;2024-01-25T03:19:29;7.80;59.50
10057;DHT22;5068;51.286;7.518;2024-01-25T03:21:02;7.80;59.50
10057;DHT22;5068;51.286;7.518;2024-01-25T03:22:35;7.80;59.50
10057;DHT22;5068;51.286;7.518;2024-01-25T03:24:08;7.80;59.60
10057;DHT22;5068;51.286;7.518;2024-01-25T03:25:42;7.70;59.50
10057;DHT22;5068;51.286;7.518;2024-01-25T03:27:15;7.80;59.60
10057;DHT22;5068;51.286;7.518;2024-01-25T03:28:47;7.80;59.70
10057;DHT22;5068;51.286;7.518;2024-01-25T03:30:21;7.70;59.60
10057;DHT22;5068;51.286;7.518;2024-01-25T03:31:54;7.70;59.60
10057;DHT22;5068;51.286;7.518;2024-01-25T03:33:26;7.70;59.60
10057;DHT22;5068;51.286;7.518;2024-01-25T03:35:00;7.70;59.50
10057;DHT22;5068;51.286;7.518;2024-01-25T03:36:33;7.70;59.50
10057;DHT22;5068;51.286;7.518;2024-01-25T03:38:08;7.70;59.70
10057;DHT22;5068;51.286;7.518;2024-01-25T03:39:40;7.70;59.70
10057;DHT22;5068;51.286;7.518;2024-01-25T03:41:15;7.70;59.70
10057;DHT22;5068;51.286;7.518;2024-01-25T03:42:47;7.70;59.70
10057;DHT22;5068;51.286;7.518;2024-01-25T03:44:41;7.70;59.70
10057;DHT22;5068;51.286;7.518;2024-01-25T03:46:14;7.70;59.90
10057;DHT22;5068;51.286;7.518;2024-01-25T03:47:47;7.70;59.90
10057;DHT22;5068;51.286;7.518;2024-01-25T03:49:21;7.60;59.80
10057;DHT22;5068;51.286;7.518;2024-01-25T03:50:55;7.60;59.80
10057;DHT22;5068;51.286;7.518;2024-01-25T03:52:28;7.60;59.80
10057;DHT22;5068;51.286;7.518;2024-01-25T03:54:02;7.60;59.70
10057;DHT22;5068;51.286;7.518;2024-01-25T03:55:35;7.60;59.90
10057;DHT22;5068;51.286;7.518;2024-01-25T03:57:09;7.60;59.90
10057;DHT22;5068;51.286;7.518;2024-01-25T03:58:43;7.60;60.00
10057;DHT22;5068;51.286;7.518;2024-01-25T04:00:15;7.60;60.10
10057;DHT22;5068;51.286;7.518;2024-01-25T04:01:49;7.60;60.10
10057;DHT22;5068;51.286;7.518;2024-01-25T04:03:21;7.50;60.00
10057;DHT22;5068;51.286;7.518;2024-01-25T04:04:55;7.60;60.00
10057;DHT22;5068;51.286;7.518;2024-01-25T04:06:27;7.60;60.00
10057;DHT22;5068;51.286;7.518;2024-01-25T04:08:00;7.50;59.90
10057;DHT22;5068;51.286;7.518;2024-01-25T04:09:32;7.50;59.90
10057;DHT22;5068;51.286;7.518;2024-01-25T04:11:05;7.50;59.90
10057;DHT22;5068;51.286;7.518;2024-01-25T04:12:41;7.50;59.90
10057;DHT22;5068;51.286;7.518;2024-01-25T04:14:14;7.50;59.90
10057;DHT22;5068;51.286;7.518;2024-01-25T04:15:47;7.50;60.00
10057;DHT22;5068;51.286;7.518;2024-01-25T04:17:21;7.50;59.90
10057;DHT22;5068;51.286;7.518;2024-01-25T04:18:53;7.50;60.00
10057;DHT22;5068;51.286;7.518;2024-01-25T04:20:26;7.50;59.90
10057;DHT22;5068;51.286;7.518;2024-01-25T04:22:00;7.50;59.90
10057;DHT22;5068;51.286;7.518;2024-01-25T04:23:33;7.50;60.00
10057;DHT22;5068;51.286;7.518;2024-01-25T04:25:07;7.50;60.00
10057;DHT22;5068;51.286;7.518;2024-01-25T04:26:40;7.50;60.10
10057;DHT22;5068;51.286;7.518;2024-01-25T04:28:14;7.50;60.00
10057;DHT22;5068;51.286;7.518;2024-01-25T04:29:47;7.50;60.00
10057;DHT22;5068;51.286;7.518;2024-01-25T04:31:20;7.50;60.00
10057;DHT22;5068;51.286;7.518;2024-01-25T04:32:53;7.40;59.90
10057;DHT22;5068;51.286;7.518;2024-01-25T04:34:26;7.40;59.90
10057;DHT22;5068;51.286;7.518;2024-01-25T04:35:59;7.40;59.90
10057;DHT22;5068;51.286;7.518;2024-01-25T04:37:32;7.40;59.90
10057;DHT22;5068;51.286;7.518;2024-01-25T04:39:05;7.30;59.80
10057;DHT22;5068;51.286;7.518;2024-01-25T04:40:38;7.30;59.80
10057;DHT22;5068;51.286;7.518;2024-01-25T04:42:11;7.30;59.80
10057;DHT22;5068;51.286;7.518;2024-01-25T04:43:44;7.30;59.80
10057;DHT22;5068;51.286;7.518;2024-01-25T04:45:18;7.30;59.80
10057;DHT22;5068;51.286;7.518;2024-01-25T04:46:51;7.20;59.70
10057;DHT22;5068;51.286;7.518;2024-01-25T04:48:26;7.20;59.80
10057;DHT22;5068;51.286;7.518;2024-01-25T04:49:58;7.20;59.70
10057;DHT22;5068;51.286;7.518;2024-01-25T04:51:32;7.20;59.80
10057;DHT22;5068;51.286;7.518;2024-01-25T04:53:05;7.10;59.60
10057;DHT22;5068;51.286;7.518;2024-01-25T04:54:37;7.10;59.60
10057;DHT22;5068;51.286;7.518;2024-01-25T04:56:10;7.10;59.60
10057;DHT22;5068;51.286;7.518;2024-01-25T04:57:43;7.10;59.60
10057;DHT22;5068;51.286;7.518;2024-01-25T04:59:18;7.10;59.60
10057;DHT22;5068;51.286;7.518;2024-01-25T05:00:50;7.10;59.60
10057;DHT22;5068;51.286;7.518;2024-01-25T05:02:24;7.00;59.60
10057;DHT22;5068;51.286;7.518;2024-01-25T05:03:57;7.00;59.50
10057;DHT22;5068;51.286;7.518;2024-01-25T05:05:30;7.00;59.50
10057;DHT22;5068;51.286;7.518;2024-01-25T05:07:03;6.90;59.50
10057;DHT22;5068;51.286;7.518;2024-01-25T05:08:36;6.90;59.50
10057;DHT22;5068;51.286;7.518;2024-01-25T05:10:09;6.80;59.40
10057;DHT22;5068;51.286;7.518;2024-01-25T05:11:42;6.90;59.50
10057;DHT22;5068;51.286;7.518;2024-01-25T05:13:15;6.80;59.40
10057;DHT22;5068;51.286;7.518;2024-01-25T05:14:50;6.80;59.40
10057;DHT22;5068;51.286;7.518;2024-01-25T05:16:22;6.80;59.40
10057;DHT22;5068;51.286;7.518;2024-01-25T05:17:55;6.70;59.30
10057;DHT22;5068;51.286;7.518;2024-01-25T05:19:28;6.70;59.30
10057;DHT22;5068;51.286;7.518;2024-01-25T05:21:01;6.70;59.30
10057;DHT22;5068;51.286;7.518;2024-01-25T05:22:34;6.60;59.20
10057;DHT22;5068;51.286;7.518;2024-01-25T05:24:12;6.60;59.80
10057;DHT22;5068;51.286;7.518;2024-01-25T05:25:45;6.60;59.20
10057;DHT22;5068;51.286;7.518;2024-01-25T05:27:17;6.50;59.10
10057;DHT22;5068;51.286;7.518;2024-01-25T05:28:50;6.50;59.10
10057;DHT22;5068;51.286;7.518;2024-01-25T05:30:25;6.50;59.10
10057;DHT22;5068;51.286;7.518;2024-01-25T05:31:58;6.40;59.10
10057;DHT22;5068;51.286;7.518;2024-01-25T05:33:30;6.40;59.00
10057;DHT22;5068;51.286;7.518;2024-01-25T05:35:04;6.40;59.10
10057;DHT22;5068;51.286;7.518;2024-01-25T05:36:40;6.30;59.00
10057;DHT22;5068;51.286;7.518;2024-01-25T05:38:13;6.30;59.00
10057;DHT22;5068;51.286;7.518;2024-01-25T05:39:46;6.20;59.10
10057;DHT22;5068;51.286;7.518;2024-01-25T05:41:19;6.20;59.20
10057;DHT22;5068;51.286;7.518;2024-01-25T05:42:52;6.20;59.30
10057;DHT22;5068;51.286;7.518;2024-01-25T05:44:24;6.10;59.30
10057;DHT22;5068;51.286;7.518;2024-01-25T05:45:58;6.10;59.70
10057;DHT22;5068;51.286;7.518;2024-01-25T05:47:34;6.10;59.60
10057;DHT22;5068;51.286;7.518;2024-01-25T05:49:08;6.00;59.50
10057;DHT22;5068;51.286;7.518;2024-01-25T05:50:40;6.00;59.50
10057;DHT22;5068;51.286;7.518;2024-01-25T05:52:14;6.00;59.60
10057;DHT22;5068;51.286;7.518;2024-01-25T05:53:46;5.90;59.60
10057;DHT22;5068;51.286;7.518;2024-01-25T05:55:19;5.90;59.60
10057;DHT22;5068;51.286;7.518;2024-01-25T05:56:51;5.90;59.70
10057;DHT22;5068;51.286;7.518;2024-01-25T05:58:25;5.90;59.70
10057;DHT22;5068;51.286;7.518;2024-01-25T05:59:57;5.80;59.60
10057;DHT22;5068;51.286;7.518;2024-01-25T06:01:32;5.80;59.60
10057;DHT22;5068;51.286;7.518;2024-01-25T06:03:05;5.80;59.60
10057;DHT22;5068;51.286;7.518;2024-01-25T06:04:38;5.80;59.70
10057;DHT22;5068;51.286;7.518;2024-01-25T06:06:11;5.70;59.70
10057;DHT22;5068;51.286;7.518;2024-01-25T06:07:44;5.70;59.60
10057;DHT22;5068;51.286;7.518;2024-01-25T06:09:17;5.70;59.70
10057;DHT22;5068;51.286;7.518;2024-01-25T06:10:52;5.60;59.60
10057;DHT22;5068;51.286;7.518;2024-01-25T06:12:24;5.60;59.70
10057;DHT22;5068;51.286;7.518;2024-01-25T06:13:57;5.60;60.40
10057;DHT22;5068;51.286;7.518;2024-01-25T06:15:30;5.60;59.70
10057;DHT22;5068;51.286;7.518;2024-01-25T06:17:05;5.60;59.80
10057;DHT22;5068;51.286;7.518;2024-01-25T06:18:37;5.50;59.70
10057;DHT22;5068;51.286;7.518;2024-01-25T06:20:11;5.50;59.80
10057;DHT22;5068;51.286;7.518;2024-01-25T06:21:43;5.50;59.90
10057;DHT22;5068;51.286;7.518;2024-01-25T06:23:16;5.50;59.90
10057;DHT22;5068;51.286;7.518;2024-01-25T06:24:49;5.40;59.90
10057;DHT22;5068;51.286;7.518;2024-01-25T06:26:22;5.40;59.90
10057;DHT22;5068;51.286;7.518;2024-01-25T06:27:55;5.40;60.10
10057;DHT22;5068;51.286;7.518;2024-01-25T06:29:29;5.30;61.20
10057;DHT22;5068;51.286;7.518;2024-01-25T06:31:01;5.30;61.10
10057;DHT22;5068;51.286;7.518;2024-01-25T06:32:36;5.30;61.20
10057;DHT22;5068;51.286;7.518;2024-01-25T06:34:09;5.30;61.20
10057;DHT22;5068;51.286;7.518;2024-01-25T06:35:43;5.30;61.20
10057;DHT22;5068;51.286;7.518;2024-01-25T06:37:16;5.20;61.10
10057;DHT22;5068;51.286;7.518;2024-01-25T06:38:50;5.20;61.10
10057;DHT22;5068;51.286;7.518;2024-01-25T06:40:23;5.20;61.10
10057;DHT22;5068;51.286;7.518;2024-01-25T06:41:56;5.10;61.00
10057;DHT22;5068;51.286;7.518;2024-01-25T06:43:29;5.20;61.10
10057;DHT22;5068;51.286;7.518;2024-01-25T06:45:02;5.10;61.00
10057;DHT22;5068;51.286;7.518;2024-01-25T06:46:35;5.10;61.00
10057;DHT22;5068;51.286;7.518;2024-01-25T06:48:10;5.10;61.00
10057;DHT22;5068;51.286;7.518;2024-01-25T06:49:42;5.10;61.10
10057;DHT22;5068;51.286;7.518;2024-01-25T06:51:20;5.00;61.10
10057;DHT22;5068;51.286;7.518;2024-01-25T06:52:52;5.00;61.10
10057;DHT22;5068;51.286;7.518;2024-01-25T06:54:27;5.00;61.20
10057;DHT22;5068;51.286;7.518;2024-01-25T06:55:59;5.00;61.20
10057;DHT22;5068;51.286;7.518;2024-01-25T06:57:32;4.90;61.20
10057;DHT22;5068;51.286;7.518;2024-01-25T06:59:04;4.90;61.40
10057;DHT22;5068;51.286;7.518;2024-01-25T07:00:38;4.90;61.40
10057;DHT22;5068;51.286;7.518;2024-01-25T07:02:11;4.90;61.40
10057;DHT22;5068;51.286;7.518;2024-01-25T07:03:46;4.80;61.30
10057;DHT22;5068;51.286;7.518;2024-01-25T07:05:21;4.80;61.30
10057;DHT22;5068;51.286;7.518;2024-01-25T07:06:54;4.80;61.30
10057;DHT22;5068;51.286;7.518;2024-01-25T07:08:27;4.80;61.50
10057;DHT22;5068;51.286;7.518;2024-01-25T07:10:00;4.70;61.50
10057;DHT22;5068;51.286;7.518;2024-01-25T07:11:33;4.70;61.70
10057;DHT22;5068;51.286;7.518;2024-01-25T07:13:06;4.70;61.70
10057;DHT22;5068;51.286;7.518;2024-01-25T07:14:39;4.70;61.80
10057;DHT22;5068;51.286;7.518;2024-01-25T07:16:12;4.70;61.80
10057;DHT22;5068;51.286;7.518;2024-01-25T07:17:44;4.60;61.80
10057;DHT22;5068;51.286;7.518;2024-01-25T07:19:19;4.60;61.90
10057;DHT22;5068;51.286;7.518;2024-01-25T07:20:51;4.60;62.00
10057;DHT22;5068;51.286;7.518;2024-01-25T07:22:24;4.60;62.10
10057;DHT22;5068;51.286;7.518;2024-01-25T07:23:57;4.50;62.00
10057;DHT22;5068;51.286;7.518;2024-01-25T07:25:30;4.50;62.20
10057;DHT22;5068;51.286;7.518;2024-01-25T07:27:03;4.50;62.30
10057;DHT22;5068;51.286;7.518;2024-01-25T07:28:37;4.50;62.60
10057;DHT22;5068;51.286;7.518;2024-01-25T07:30:10;4.50;62.70
10057;DHT22;5068;51.286;7.518;2024-01-25T07:31:44;4.50;62.90
10057;DHT22;5068;51.286;7.518;2024-01-25T07:33:17;4.50;62.90
10057;DHT22;5068;51.286;7.518;2024-01-25T07:34:51;4.60;63.20
10057;DHT22;5068;51.286;7.518;2024-01-25T07:36:25;4.50;63.20
10057;DHT22;5068;51.286;7.518;2024-01-25T07:37:58;4.50;63.20
10057;DHT22;5068;51.286;7.518;2024-01-25T07:39:30;4.50;63.30
10057;DHT22;5068;51.286;7.518;2024-01-25T07:41:04;4.50;63.40
10057;DHT22;5068;51.286;7.518;2024-01-25T07:42:37;4.40;63.60
10057;DHT22;5068;51.286;7.518;2024-01-25T07:44:09;4.40;63.70
10057;DHT22;5068;51.286;7.518;2024-01-25T07:45:45;4.40;64.00
10057;DHT22;5068;51.286;7.518;2024-01-25T07:47:17;4.40;64.20
10057;DHT22;5068;51.286;7.518;2024-01-25T07:48:51;4.40;64.50
10057;DHT22;5068;51.286;7.518;2024-01-25T07:50:25;4.40;64.50
10057;DHT22;5068;51.286;7.518;2024-01-25T07:51:58;4.40;64.60
10057;DHT22;5068;51.286;7.518;2024-01-25T07:53:31;4.40;64.70
10057;DHT22;5068;51.286;7.518;2024-01-25T07:55:05;4.50;64.80
10057;DHT22;5068;51.286;7.518;2024-01-25T07:56:37;4.50;64.90
10057;DHT22;5068;51.286;7.518;2024-01-25T07:58:11;4.50;64.90
10057;DHT22;5068;51.286;7.518;2024-01-25T07:59:43;4.50;65.00
10057;DHT22;5068;51.286;7.518;2024-01-25T08:01:17;4.50;65.00
10057;DHT22;5068;51.286;7.518;2024-01-25T08:02:50;4.50;65.10
10057;DHT22;5068;51.286;7.518;2024-01-25T08:04:23;4.50;65.20
10057;DHT22;5068;51.286;7.518;2024-01-25T08:05:58;4.50;65.20
10057;DHT22;5068;51.286;7.518;2024-01-25T08:07:31;4.50;65.30
10057;DHT22;5068;51.286;7.518;2024-01-25T08:09:05;4.60;65.40
10057;DHT22;5068;51.286;7.518;2024-01-25T08:10:37;4.50;65.30
10057;DHT22;5068;51.286;7.518;2024-01-25T08:12:10;4.50;65.40
10057;DHT22;5068;51.286;7.518;2024-01-25T08:13:43;4.60;65.50
10057;DHT22;5068;51.286;7.518;2024-01-25T08:15:16;4.60;65.60
10057;DHT22;5068;51.286;7.518;2024-01-25T08:16:48;4.60;65.60
10057;DHT22;5068;51.286;7.518;2024-01-25T08:18:22;4.60;65.70
10057;DHT22;5068;51.286;7.518;2024-01-25T08:19:54;4.60;65.70
10057;DHT22;5068;51.286;7.518;2024-01-25T08:21:29;4.70;65.90
10057;DHT22;5068;51.286;7.518;2024-01-25T08:23:20;4.70;65.60
10057;DHT22;5068;51.286;7.518;2024-01-25T08:24:52;4.70;66.30
10057;DHT22;5068;51.286;7.518;2024-01-25T08:26:26;4.70;66.20
10057;DHT22;5068;51.286;7.518;2024-01-25T08:27:59;4.70;66.30
10057;DHT22;5068;51.286;7.518;2024-01-25T08:29:32;4.70;67.20
10057;DHT22;5068;51.286;7.518;2024-01-25T08:31:05;4.70;66.50
10057;DHT22;5068;51.286;7.518;2024-01-25T08:32:38;4.80;66.80
10057;DHT22;5068;51.286;7.518;2024-01-25T08:34:11;4.80;66.90
10057;DHT22;5068;51.286;7.518;2024-01-25T08:35:44;4.80;67.00
10057;DHT22;5068;51.286;7.518;2024-01-25T08:37:19;4.80;67.90
10057;DHT22;5068;51.286;7.518;2024-01-25T08:38:51;4.90;67.30
10057;DHT22;5068;51.286;7.518;2024-01-25T08:40:24;4.90;67.30
10057;DHT22;5068;51.286;7.518;2024-01-25T08:42:00;4.90;67.30
10057;DHT22;5068;51.286;7.518;2024-01-25T08:43:54;4.90;67.30
10057;DHT22;5068;51.286;7.518;2024-01-25T08:45:46;5.00;67.40
10057;DHT22;5068;51.286;7.518;2024-01-25T08:47:19;5.00;67.40
10057;DHT22;5068;51.286;7.518;2024-01-25T08:48:54;5.00;67.30
10057;DHT22;5068;51.286;7.518;2024-01-25T08:50:28;5.10;67.80
10057;DHT22;5068;51.286;7.518;2024-01-25T08:52:02;5.10;67.20
10057;DHT22;5068;51.286;7.518;2024-01-25T08:53:38;5.10;67.20
10057;DHT22;5068;51.286;7.518;2024-01-25T08:55:13;5.10;67.00
10057;DHT22;5068;51.286;7.518;2024-01-25T08:56:46;5.10;67.00
10057;DHT22;5068;51.286;7.518;2024-01-25T08:58:19;5.20;66.90
10057;DHT22;5068;51.286;7.518;2024-01-25T08:59:52;5.20;66.90
10057;DHT22;5068;51.286;7.518;2024-01-25T09:01:26;5.30;67.00
10057;DHT22;5068;51.286;7.518;2024-01-25T09:02:58;5.30;67.00
10057;DHT22;5068;51.286;7.518;2024-01-25T09:04:32;5.30;67.00
10057;DHT22;5068;51.286;7.518;2024-01-25T09:06:05;5.30;66.80
10057;DHT22;5068;51.286;7.518;2024-01-25T09:07:38;5.30;66.60
10057;DHT22;5068;51.286;7.518;2024-01-25T09:09:12;5.30;66.50
10057;DHT22;5068;51.286;7.518;2024-01-25T09:10:45;5.40;65.30
10057;DHT22;5068;51.286;7.518;2024-01-25T09:12:18;5.40;65.10
10057;DHT22;5068;51.286;7.518;2024-01-25T09:13:51;5.40;65.00
10057;DHT22;5068;51.286;7.518;2024-01-25T09:15:23;5.50;65.10
10057;DHT22;5068;51.286;7.518;2024-01-25T09:16:57;5.50;65.00
10057;DHT22;5068;51.286;7.518;2024-01-25T09:18:29;5.50;65.80
10057;DHT22;5068;51.286;7.518;2024-01-25T09:20:07;5.50;65.00
10057;DHT22;5068;51.286;7.518;2024-01-25T09:21:41;5.50;65.10
10057;DHT22;5068;51.286;7.518;2024-01-25T09:23:15;5.60;65.10
10057;DHT22;5068;51.286;7.518;2024-01-25T09:24:50;5.60;65.10
10057;DHT22;5068;51.286;7.518;2024-01-25T09:26:22;5.60;65.10
10057;DHT22;5068;51.286;7.518;2024-01-25T09:27:56;5.70;65.00
10057;DHT22;5068;51.286;7.518;2024-01-25T09:29:29;5.70;64.90
10057;DHT22;5068;51.286;7.518;2024-01-25T09:31:02;5.70;64.80
10057;DHT22;5068;51.286;7.518;2024-01-25T09:32:38;5.70;64.80
10057;DHT22;5068;51.286;7.518;2024-01-25T09:34:11;5.80;64.90
10057;DHT22;5068;51.286;7.518;2024-01-25T09:35:44;5.80;64.80
10057;DHT22;5068;51.286;7.518;2024-01-25T09:37:20;5.80;64.70
10057;DHT22;5068;51.286;7.518;2024-01-25T09:38:55;5.80;64.60
10057;DHT22;5068;51.286;7.518;2024-01-25T09:40:29;5.90;64.90
10057;DHT22;5068;51.286;7.518;2024-01-25T09:42:03;5.90;64.60
10057;DHT22;5068;51.286;7.518;2024-01-25T09:43:36;5.90;64.50
10057;DHT22;5068;51.286;7.518;2024-01-25T09:45:17;5.90;64.40
10057;DHT22;5068;51.286;7.518;2024-01-25T09:46:51;5.90;64.50
10057;DHT22;5068;51.286;7.518;2024-01-25T09:48:24;6.00;64.50
10057;DHT22;5068;51.286;7.518;2024-01-25T09:49:58;5.90;64.40
10057;DHT22;5068;51.286;7.518;2024-01-25T09:51:37;6.00;64.40
10057;DHT22;5068;51.286;7.518;2024-01-25T09:53:13;6.00;64.50
10057;DHT22;5068;51.286;7.518;2024-01-25T09:54:54;6.00;64.40
10057;DHT22;5068;51.286;7.518;2024-01-25T09:56:30;6.00;64.30
10057;DHT22;5068;51.286;7.518;2024-01-25T09:58:05;6.00;64.20
10057;DHT22;5068;51.286;7.518;2024-01-25T09:59:40;6.10;64.30
10057;DHT22;5068;51.286;7.518;2024-01-25T10:01:15;6.10;63.80
10057;DHT22;5068;51.286;7.518;2024-01-25T10:02:49;6.10;63.80
10057;DHT22;5068;51.286;7.518;2024-01-25T10:04:21;6.10;63.60
10057;DHT22;5068;51.286;7.518;2024-01-25T10:05:56;6.10;63.50
10057;DHT22;5068;51.286;7.518;2024-01-25T10:07:38;6.20;63.50
10057;DHT22;5068;51.286;7.518;2024-01-25T10:09:13;6.20;63.50
10057;DHT22;5068;51.286;7.518;2024-01-25T10:10:46;6.20;63.40
10057;DHT22;5068;51.286;7.518;2024-01-25T10:12:20;6.20;63.20